createdAt,value
2022-12-09T00:02:36.730Z,99.3
2022-12-09T00:07:34.763Z,99.5
2022-12-09T00:12:32.879Z,99.6
2022-12-09T00:17:31.433Z,99.4
2022-12-09T00:22:29.403Z,99.9
2022-12-09T00:27:27.553Z,99.9
2022-12-09T00:32:25.839Z,99.8
2022-12-09T00:37:23.952Z,100
2022-12-09T00:42:22.441Z,99.7
2022-12-09T00:47:20.256Z,99.7
2022-12-09T00:52:18.324Z,99.6
2022-12-09T00:57:16.455Z,99.8
2022-12-09T01:02:14.816Z,99.6
2022-12-09T01:07:12.930Z,99.8
2022-12-09T01:12:10.909Z,99.5
2022-12-09T01:17:09.421Z,99.2
2022-12-09T01:22:07.390Z,99
2022-12-09T01:27:05.459Z,99
2022-12-09T01:32:03.687Z,98.9
2022-12-09T01:37:01.827Z,98.9
2022-12-09T01:42:00.001Z,99.2
2022-12-09T01:46:58.353Z,98.7
2022-12-09T01:51:56.441Z,98.5
2022-12-09T01:56:54.683Z,99
2022-12-09T02:01:53.140Z,99.2
2022-12-09T02:06:51.198Z,99
2022-12-09T02:11:49.337Z,98.7
2022-12-09T02:16:47.615Z,99.1
2022-12-09T02:21:45.776Z,100
2022-12-09T02:26:43.927Z,100
2022-12-09T02:31:42.046Z,100
2022-12-09T02:36:40.435Z,100
2022-12-09T02:41:38.602Z,100
2022-12-09T02:46:36.943Z,100
2022-12-09T02:51:35.234Z,100
2022-12-09T02:56:33.198Z,100
2022-12-09T03:01:31.591Z,100
2022-12-09T03:06:29.641Z,100
2022-12-09T03:11:28.068Z,100
2022-12-09T03:16:26.200Z,100
2022-12-09T03:21:23.638Z,100
2022-12-09T03:26:21.694Z,100
2022-12-09T03:31:20.040Z,100
2022-12-09T03:36:18.425Z,100
2022-12-09T03:41:16.256Z,100
2022-12-09T03:46:14.698Z,100
2022-12-09T03:51:13.152Z,100
2022-12-09T03:56:11.567Z,100
2022-12-09T04:01:09.621Z,100
2022-12-09T04:06:07.625Z,100
2022-12-09T04:11:06.227Z,100
2022-12-09T04:16:04.273Z,100
2022-12-09T04:21:02.782Z,100
2022-12-09T04:26:01.429Z,100
2022-12-09T04:30:59.601Z,100
2022-12-09T04:35:57.859Z,100
2022-12-09T04:40:56.197Z,100
2022-12-09T04:45:54.264Z,100
2022-12-09T04:50:52.510Z,100
2022-12-09T04:55:51.015Z,100
2022-12-09T05:00:49.058Z,100
2022-12-09T05:05:47.821Z,100
2022-12-09T05:10:46.043Z,100
2022-12-09T05:15:44.354Z,100
2022-12-09T05:20:42.350Z,100
2022-12-09T05:25:40.559Z,100
2022-12-09T05:30:39.025Z,100
2022-12-09T05:35:45.165Z,100
2022-12-09T05:40:35.358Z,100
2022-12-09T05:45:33.449Z,100
2022-12-09T05:50:31.785Z,100
2022-12-09T05:55:29.856Z,100
2022-12-09T06:00:28.049Z,100
2022-12-09T06:05:26.351Z,100
2022-12-09T06:10:24.917Z,100
2022-12-09T06:15:25.746Z,100
2022-12-09T06:20:21.688Z,100
2022-12-09T06:25:19.886Z,100
2022-12-09T06:30:18.651Z,99
2022-12-09T06:35:17.374Z,98.6
2022-12-09T06:40:15.792Z,97.2
2022-12-09T06:45:14.444Z,96.2
2022-12-09T06:50:13.143Z,95.9
2022-12-09T06:55:11.792Z,94.8
2022-12-09T07:00:09.860Z,94
2022-12-09T07:05:08.904Z,93.6
2022-12-09T07:10:06.729Z,93
2022-12-09T07:15:05.481Z,91.8
2022-12-09T07:20:06.867Z,91
2022-12-09T07:25:01.589Z,89.8
2022-12-09T07:30:00.429Z,87.6
2022-12-09T07:34:59.376Z,85.5
2022-12-09T08:10:47.066Z,73.6
2022-12-09T08:15:45.822Z,69.3
2022-12-09T08:20:44.513Z,66.7
2022-12-09T08:25:43.235Z,65.7
2022-12-09T08:30:40.533Z,66
2022-12-09T08:35:38.636Z,66.9
2022-12-09T08:40:37.634Z,63.3
2022-12-09T08:45:36.395Z,61.6
2022-12-09T08:50:33.730Z,60.9
2022-12-09T08:55:31.873Z,62.3
2022-12-09T09:00:29.762Z,62.4
2022-12-09T09:05:28.019Z,62.7
2022-12-09T09:10:24.977Z,63.9
2022-12-09T09:15:22.770Z,64.8
2022-12-09T09:20:21.629Z,64.6
2022-12-09T09:25:19.848Z,64.6
2022-12-09T09:30:18.415Z,63.5
2022-12-09T09:35:16.576Z,60.9
2022-12-09T09:40:15.573Z,59.7
2022-12-09T09:45:13.237Z,59
2022-12-09T09:50:11.930Z,61.5
2022-12-09T09:55:09.751Z,61.3
2022-12-09T10:00:09.932Z,59.5
2022-12-09T10:05:06.975Z,59
2022-12-09T10:10:05.321Z,57.3
2022-12-09T10:15:03.508Z,56.9
2022-12-09T10:20:01.835Z,57.3
2022-12-09T10:24:59.244Z,59.1
2022-12-09T10:29:56.904Z,59.8
2022-12-09T10:34:54.350Z,61
2022-12-09T10:39:52.829Z,62
2022-12-09T10:44:50.703Z,61.3
2022-12-09T10:54:55.985Z,59.5
2022-12-09T11:35:23.366Z,61.6
2022-12-09T11:40:21.424Z,61
2022-12-09T11:45:19.324Z,61
2022-12-09T11:50:17.973Z,60
2022-12-09T11:55:16.639Z,59.5
2022-12-09T12:00:14.776Z,59.7
2022-12-09T12:05:14.674Z,59.7
2022-12-09T12:10:10.746Z,60.1
2022-12-09T12:15:08.948Z,60
2022-12-09T12:20:07.362Z,59.6
2022-12-09T12:25:06.097Z,58.6
2022-12-09T12:30:03.828Z,58.7
2022-12-09T12:35:01.437Z,60.2
2022-12-09T12:39:59.560Z,60.9
2022-12-09T12:44:57.543Z,61
2022-12-09T12:49:55.727Z,60.9
2022-12-09T12:54:53.836Z,62.2
2022-12-09T12:59:51.735Z,62.8
2022-12-09T13:04:49.834Z,63.3
2022-12-09T13:09:47.717Z,64.7
2022-12-09T13:14:50.305Z,66.1
2022-12-09T13:19:43.705Z,67
2022-12-09T13:24:41.651Z,68.6
2022-12-09T13:29:39.643Z,70.3
2022-12-09T13:34:37.949Z,71.5
2022-12-09T13:39:36.216Z,72.9
2022-12-09T13:44:33.932Z,74.6
2022-12-09T13:49:32.070Z,75.4
2022-12-09T13:54:30.168Z,76.7
2022-12-09T13:59:28.140Z,77.4
2022-12-09T14:04:26.100Z,78.5
2022-12-09T14:09:24.161Z,79.4
2022-12-09T14:14:22.508Z,80
2022-12-09T14:19:20.553Z,80.7
2022-12-09T14:24:18.488Z,81.9
2022-12-09T14:29:16.465Z,82.9
2022-12-09T14:34:17.343Z,84.9
2022-12-09T14:39:24.002Z,86
2022-12-09T14:44:13.011Z,87.3
2022-12-09T14:49:11.235Z,87.8
2022-12-09T14:54:09.420Z,88.1
2022-12-09T14:59:07.740Z,88.4
2022-12-09T15:04:06.098Z,88.4
2022-12-09T15:09:04.155Z,89
2022-12-09T15:14:02.301Z,89.2
2022-12-09T15:19:00.471Z,90.3
2022-12-09T15:23:58.508Z,91.4
2022-12-09T15:28:56.888Z,91.7
2022-12-09T15:33:54.986Z,92.7
2022-12-09T15:38:53.188Z,93.2
2022-12-09T15:43:55.026Z,94.1
2022-12-09T15:48:49.453Z,94.9
2022-12-09T15:53:51.918Z,95.5
2022-12-09T15:58:45.771Z,96.7
2022-12-09T16:03:44.037Z,96.3
2022-12-09T16:08:42.510Z,96.4
2022-12-09T16:13:41.045Z,96.1
2022-12-09T16:18:39.343Z,96
2022-12-09T16:23:37.278Z,96.2
2022-12-09T16:28:37.601Z,96.4
2022-12-09T16:33:35.272Z,97.3
2022-12-09T16:38:33.398Z,97.4
2022-12-09T16:43:31.616Z,97.8
2022-12-09T16:48:29.933Z,98.1
2022-12-09T16:53:28.392Z,98.2
2022-12-09T16:58:26.671Z,98.6
2022-12-09T17:03:25.229Z,99
2022-12-09T17:08:23.547Z,99.1
2022-12-09T17:13:21.760Z,99.9
2022-12-09T17:18:20.047Z,100
2022-12-09T17:23:18.263Z,100
2022-12-09T17:28:16.608Z,100
2022-12-09T17:33:14.956Z,100
2022-12-09T17:38:13.383Z,100
2022-12-09T17:43:11.857Z,100
2022-12-09T17:48:09.983Z,100
2022-12-09T17:53:08.258Z,100
2022-12-09T17:58:06.327Z,100
2022-12-09T18:03:04.599Z,100
2022-12-09T18:08:02.931Z,100
2022-12-09T18:13:00.983Z,100
2022-12-09T18:17:59.293Z,100
2022-12-09T18:22:57.498Z,100
2022-12-09T18:27:55.856Z,100
2022-12-09T18:32:54.198Z,100
2022-12-09T18:37:52.369Z,100
2022-12-09T18:42:50.546Z,100
2022-12-09T18:47:48.908Z,100
2022-12-09T18:52:47.041Z,100
2022-12-09T18:57:45.464Z,100
2022-12-09T19:02:43.962Z,100
2022-12-09T19:07:42.267Z,100
2022-12-09T19:12:50.685Z,100
2022-12-09T19:17:38.875Z,100
2022-12-09T19:22:37.229Z,100
2022-12-09T19:27:35.312Z,100
2022-12-09T19:32:55.259Z,100
2022-12-09T19:37:32.043Z,100
2022-12-09T19:42:30.130Z,100
2022-12-09T19:47:28.751Z,100
2022-12-09T19:52:29.473Z,100
2022-12-09T19:57:27.398Z,100
2022-12-09T20:02:25.985Z,100
2022-12-09T20:07:24.257Z,100
2022-12-09T20:12:22.530Z,100
2022-12-09T20:17:20.974Z,100
2022-12-09T20:22:19.224Z,100
2022-12-09T20:27:17.616Z,100
2022-12-09T20:32:16.156Z,100
2022-12-09T20:37:14.567Z,100
2022-12-09T20:42:12.749Z,100
2022-12-09T20:47:10.902Z,100
2022-12-09T20:52:09.243Z,100
2022-12-09T20:57:07.359Z,100
2022-12-09T21:02:09.542Z,100
2022-12-09T21:07:03.892Z,100
2022-12-09T21:12:02.455Z,100
2022-12-09T21:17:00.559Z,100
2022-12-09T21:21:58.944Z,100
2022-12-09T21:26:57.323Z,100
2022-12-09T21:31:55.560Z,100
2022-12-09T21:36:53.706Z,100
2022-12-09T21:41:52.232Z,100
2022-12-09T21:46:50.321Z,100
2022-12-09T21:51:48.546Z,100
2022-12-09T21:56:46.712Z,100
2022-12-09T22:01:44.884Z,100
2022-12-09T22:06:42.947Z,100
2022-12-09T22:11:41.372Z,100
2022-12-09T22:16:39.821Z,100
2022-12-09T22:21:38.051Z,100
2022-12-09T22:26:36.505Z,100
2022-12-09T22:31:34.773Z,100
2022-12-09T22:36:32.961Z,100
2022-12-09T22:41:31.268Z,100
2022-12-09T22:46:29.500Z,100
2022-12-09T22:51:28.073Z,100
2022-12-09T22:56:26.309Z,100
2022-12-09T23:01:24.618Z,100
2022-12-09T23:06:22.859Z,100
2022-12-09T23:11:21.096Z,100
2022-12-09T23:16:19.153Z,100
2022-12-09T23:21:17.226Z,100
2022-12-09T23:26:15.311Z,100
2022-12-09T23:31:13.589Z,100
2022-12-09T23:36:11.729Z,100
2022-12-09T23:41:09.940Z,100
2022-12-09T23:46:14.813Z,100
2022-12-09T23:51:06.358Z,100
2022-12-09T23:56:04.441Z,100
